createdAt,value
2018-06-08T00:17:30.640Z,65.42
2018-06-08T00:42:47.171Z,67.48
2018-06-08T01:04:53.480Z,68.93
2018-06-08T01:07:24.220Z,70.21
2018-06-08T01:09:54.728Z,70.51
2018-06-08T01:12:25.162Z,70.19
2018-06-08T01:14:55.618Z,70.06
2018-06-08T01:17:26.069Z,69.93
2018-06-08T01:19:57.151Z,70.19
2018-06-08T01:22:27.531Z,70.04
2018-06-08T01:24:57.972Z,70.19
2018-06-08T01:27:28.598Z,70.22
2018-06-08T01:29:59.382Z,70.41
2018-06-08T01:32:29.797Z,70.67
2018-06-08T01:35:00.327Z,70.66
2018-06-08T01:37:32.836Z,70.44
2018-06-08T01:40:03.587Z,70.18
2018-06-08T01:42:34.020Z,70.02
2018-06-08T01:45:04.599Z,70.11
2018-06-08T01:47:35.088Z,70.04
2018-06-08T01:50:05.482Z,69.86
2018-06-08T01:52:35.891Z,70.81
2018-06-08T01:55:06.501Z,70.43
2018-06-08T01:57:37.017Z,70.49
2018-06-08T02:00:07.659Z,70.83
2018-06-08T02:02:38.174Z,70.38
2018-06-08T02:05:08.583Z,70.83
2018-06-08T02:07:38.997Z,71.40
2018-06-08T02:10:09.332Z,71.17
2018-06-08T02:12:40.175Z,71.41
2018-06-08T02:15:10.565Z,71.90
2018-06-08T02:17:42.059Z,72.45
2018-06-08T02:20:12.571Z,71.75
2018-06-08T02:22:43.020Z,72.38
2018-06-08T02:25:13.344Z,72.76
2018-06-08T02:27:43.754Z,73.09
2018-06-08T02:30:14.321Z,72.88
2018-06-08T02:32:44.794Z,73.50
2018-06-08T02:35:15.264Z,73.71
2018-06-08T02:37:45.785Z,74.08
2018-06-08T02:40:16.285Z,74.54
2018-06-08T02:42:46.797Z,74.47
2018-06-08T02:45:17.612Z,75.11
2018-06-08T02:47:48.094Z,75.03
2018-06-08T02:50:18.480Z,74.52
2018-06-08T02:52:48.808Z,74.43
2018-06-08T02:55:19.258Z,74.60
2018-06-08T02:57:49.653Z,73.28
2018-06-08T03:00:20.343Z,73.11
2018-06-08T03:02:50.916Z,73.18
2018-06-08T03:05:21.411Z,72.85
2018-06-08T03:07:51.773Z,73.35
2018-06-08T03:10:22.338Z,73.65
2018-06-08T03:12:52.720Z,73.73
2018-06-08T03:15:23.081Z,73.67
2018-06-08T03:17:53.518Z,73.41
2018-06-08T03:20:24.101Z,73.68
2018-06-08T03:22:54.536Z,73.81
2018-06-08T03:25:25.107Z,74.36
2018-06-08T03:27:55.648Z,74.39
2018-06-08T03:30:26.052Z,73.27
2018-06-08T03:32:56.704Z,72.84
2018-06-08T03:35:27.213Z,72.24
2018-06-08T03:37:57.742Z,72.00
2018-06-08T03:40:28.140Z,70.76
2018-06-08T03:42:58.548Z,69.81
2018-06-08T03:45:29.113Z,68.97
2018-06-08T03:47:59.620Z,68.15
2018-06-08T03:50:30.129Z,68.20
2018-06-08T03:53:00.704Z,67.77
2018-06-08T03:55:30.997Z,67.16
2018-06-08T03:58:01.448Z,66.15
2018-06-08T04:00:32.076Z,65.48
2018-06-08T04:03:02.497Z,65.26
2018-06-08T04:05:33.021Z,63.92
2018-06-08T04:08:03.540Z,63.41
2018-06-08T04:10:33.899Z,62.98
2018-06-08T04:13:04.491Z,61.84
2018-06-08T04:15:34.957Z,61.48
2018-06-08T04:18:05.454Z,59.79
2018-06-08T04:20:36.008Z,59.26
2018-06-08T04:23:06.340Z,58.14
2018-06-08T04:25:37.075Z,57.72
2018-06-08T04:28:07.399Z,56.75
2018-06-08T04:30:37.749Z,56.26
2018-06-08T04:33:08.357Z,55.08
2018-06-08T04:35:38.772Z,54.73
2018-06-08T04:38:09.398Z,52.17
2018-06-08T04:40:39.664Z,51.59
2018-06-08T04:43:10.149Z,51.45
2018-06-08T04:45:40.780Z,50.06
2018-06-08T04:48:11.208Z,49.86
2018-06-08T04:50:41.588Z,48.68
2018-06-08T04:53:12.359Z,47.85
2018-06-08T04:55:42.861Z,47.33
2018-06-08T04:58:13.207Z,46.06
2018-06-08T05:00:44.086Z,44.88
2018-06-08T05:03:14.533Z,45.78
2018-06-08T05:05:45.008Z,47.10
2018-06-08T05:08:15.217Z,46.13
2018-06-08T05:10:46.142Z,44.46
2018-06-08T05:13:16.719Z,44.14
2018-06-08T05:15:47.162Z,43.51
2018-06-08T05:18:17.542Z,43.00
2018-06-08T05:20:48.174Z,42.70
2018-06-08T05:23:18.514Z,43.25
2018-06-08T05:25:48.852Z,43.11
2018-06-08T05:28:19.324Z,41.53
2018-06-08T05:30:49.890Z,41.55
2018-06-08T05:33:20.366Z,40.33
2018-06-08T05:35:50.794Z,40.87
2018-06-08T05:38:21.230Z,39.96
2018-06-08T05:40:51.890Z,40.80
2018-06-08T05:43:22.332Z,38.27
2018-06-08T05:45:52.742Z,37.69
2018-06-08T05:48:23.325Z,37.36
2018-06-08T05:50:53.690Z,37.18
2018-06-08T05:53:23.977Z,36.75
2018-06-08T05:55:54.470Z,34.98
2018-06-08T05:58:25.269Z,34.05
2018-06-08T06:00:55.812Z,36.01
2018-06-08T06:03:26.190Z,35.02
2018-06-08T06:05:56.672Z,33.64
2018-06-08T06:08:27.271Z,33.41
2018-06-08T06:10:57.939Z,34.46
2018-06-08T06:13:29.150Z,36.84
2018-06-08T06:15:59.679Z,34.60
2018-06-08T06:18:30.210Z,33.19
2018-06-08T06:21:00.646Z,34.64
2018-06-08T06:23:30.937Z,35.12
2018-06-08T06:26:01.550Z,34.88
2018-06-08T06:28:32.016Z,34.20
2018-06-08T06:31:02.517Z,32.92
2018-06-08T06:33:33.280Z,35.06
2018-06-08T06:36:03.778Z,34.62
2018-06-08T06:38:34.384Z,31.38
2018-06-08T06:41:04.850Z,31.58
2018-06-08T06:43:35.254Z,33.52
2018-06-08T06:46:05.841Z,32.38
2018-06-08T06:48:36.448Z,33.76
2018-06-08T06:51:06.929Z,33.06
2018-06-08T06:53:37.403Z,31.61
2018-06-08T06:56:07.851Z,29.80
2018-06-08T06:58:38.336Z,31.35
2018-06-08T07:01:08.666Z,32.12
2018-06-08T07:03:39.203Z,31.60
2018-06-08T07:06:09.595Z,31.75
2018-06-08T07:08:39.986Z,33.26
2018-06-08T07:11:10.557Z,30.40
2018-06-08T07:13:41.037Z,28.08
2018-06-08T07:16:11.521Z,28.18
2018-06-08T07:18:42.068Z,28.41
2018-06-08T07:21:12.362Z,29.59
2018-06-08T07:23:43.029Z,32.23
2018-06-08T07:26:13.517Z,29.56
2018-06-08T07:28:44.292Z,31.59
2018-06-08T07:31:14.668Z,28.78
2018-06-08T07:33:45.159Z,28.33
2018-06-08T07:36:15.530Z,31.21
2018-06-08T07:38:45.940Z,28.37
2018-06-08T07:41:16.312Z,29.12
2018-06-08T07:43:46.699Z,30.08
2018-06-08T07:46:17.524Z,29.83
2018-06-08T07:48:47.990Z,29.22
2018-06-08T07:51:18.283Z,28.82
2018-06-08T07:53:49.000Z,29.37
2018-06-08T07:56:19.231Z,29.66
2018-06-08T07:58:49.918Z,26.68
2018-06-08T08:01:20.269Z,27.75
2018-06-08T08:03:50.932Z,27.91
2018-06-08T08:06:21.275Z,29.92
2018-06-08T08:08:51.702Z,31.23
2018-06-08T08:11:22.211Z,28.89
2018-06-08T08:13:52.940Z,28.24
2018-06-08T08:16:23.282Z,30.09
2018-06-08T08:18:53.859Z,28.90
2018-06-08T08:21:24.312Z,30.06
2018-06-08T08:23:54.649Z,29.75
2018-06-08T08:26:25.298Z,30.27
2018-06-08T08:28:55.654Z,31.54
2018-06-08T08:31:26.260Z,29.78
2018-06-08T08:33:56.896Z,28.02
2018-06-08T08:36:27.309Z,30.54
2018-06-08T08:38:57.695Z,29.37
2018-06-08T08:41:28.240Z,28.11
2018-06-08T08:43:58.645Z,29.42
2018-06-08T08:46:29.080Z,28.92
2018-06-08T08:48:59.638Z,29.16
2018-06-08T08:51:30.076Z,28.64
2018-06-08T08:54:00.715Z,27.43
2018-06-08T08:56:31.335Z,28.07
2018-06-08T08:59:01.718Z,29.03
2018-06-08T09:01:32.365Z,32.91
2018-06-08T09:04:02.763Z,32.27
2018-06-08T09:06:33.220Z,29.15
2018-06-08T09:09:05.017Z,29.21
2018-06-08T09:11:35.524Z,28.91
2018-06-08T09:14:05.957Z,29.46
2018-06-08T09:16:36.287Z,29.30
2018-06-08T09:19:06.809Z,27.71
2018-06-08T09:21:37.308Z,27.47
2018-06-08T09:24:07.656Z,28.43
2018-06-08T09:26:38.041Z,28.88
2018-06-08T09:29:08.620Z,31.37
2018-06-08T09:31:39.039Z,30.96
2018-06-08T09:34:09.663Z,30.76
2018-06-08T09:36:40.074Z,29.45
2018-06-08T09:39:10.474Z,31.84
2018-06-08T09:41:41.037Z,31.44
2018-06-08T09:44:11.594Z,29.73
2018-06-08T09:46:42.079Z,31.02
2018-06-08T09:49:12.509Z,27.70
2018-06-08T09:51:42.964Z,26.28
2018-06-08T09:54:13.595Z,29.24
2018-06-08T09:56:43.984Z,26.48
2018-06-08T09:59:14.457Z,28.24
2018-06-08T10:01:45.246Z,28.60
2018-06-08T10:04:15.674Z,27.70
2018-06-08T10:06:46.099Z,28.05
2018-06-08T10:09:16.641Z,26.70
2018-06-08T10:11:47.040Z,27.46
2018-06-08T10:14:17.603Z,25.12
2018-06-08T10:16:47.980Z,25.33
2018-06-08T10:19:18.572Z,28.53
2018-06-08T10:21:49.189Z,28.03
2018-06-08T10:24:19.549Z,29.50
2018-06-08T10:26:50.050Z,29.68
2018-06-08T10:29:21.392Z,29.58
2018-06-08T10:31:51.779Z,28.21
2018-06-08T10:34:22.440Z,27.72
2018-06-08T10:36:52.844Z,30.94
2018-06-08T10:39:23.378Z,28.77
2018-06-08T10:41:53.881Z,28.67
2018-06-08T10:44:24.214Z,28.42
2018-06-08T10:46:54.764Z,29.52
2018-06-08T10:49:25.283Z,29.29
2018-06-08T10:51:56.347Z,29.12
2018-06-08T10:54:26.904Z,28.10
2018-06-08T10:56:57.765Z,27.69
2018-06-08T10:59:28.395Z,26.60
2018-06-08T11:01:58.762Z,26.91
2018-06-08T11:04:29.222Z,28.08
2018-06-08T11:06:59.979Z,29.03
2018-06-08T11:09:30.366Z,29.26
2018-06-08T11:12:00.804Z,27.56
2018-06-08T11:14:31.441Z,27.67
2018-06-08T11:17:01.836Z,26.98
2018-06-08T11:19:33.347Z,29.36
2018-06-08T11:22:03.760Z,27.05
2018-06-08T11:24:34.225Z,26.97
2018-06-08T11:27:04.797Z,29.73
2018-06-08T11:29:35.319Z,30.91
2018-06-08T11:32:05.942Z,31.75
2018-06-08T11:34:36.452Z,33.80
2018-06-08T11:37:06.737Z,33.27
2018-06-08T11:39:37.319Z,34.68
2018-06-08T11:42:07.645Z,35.70
2018-06-08T11:44:38.337Z,35.08
2018-06-08T11:47:08.825Z,34.31
2018-06-08T11:49:40.255Z,34.77
2018-06-08T11:52:10.736Z,36.20
2018-06-08T11:54:41.198Z,36.38
2018-06-08T11:57:11.872Z,36.54
2018-06-08T11:59:42.390Z,36.63
2018-06-08T12:02:12.941Z,35.02
2018-06-08T12:04:43.309Z,34.73
2018-06-08T12:07:13.827Z,34.58
2018-06-08T12:09:44.350Z,35.43
2018-06-08T12:12:14.835Z,34.03
2018-06-08T12:14:45.413Z,34.22
2018-06-08T12:17:15.804Z,34.83
2018-06-08T12:19:46.170Z,35.07
2018-06-08T12:22:16.815Z,34.71
2018-06-08T12:24:47.322Z,35.28
2018-06-08T12:27:17.653Z,34.46
2018-06-08T12:29:50.154Z,34.24
2018-06-08T12:32:20.442Z,33.94
2018-06-08T12:34:51.162Z,33.55
2018-06-08T12:37:21.614Z,34.22
2018-06-08T12:39:52.145Z,34.28
2018-06-08T12:42:23.274Z,34.47
2018-06-08T12:44:54.108Z,35.35
2018-06-08T12:47:24.577Z,35.78
2018-06-08T12:49:55.198Z,35.04
2018-06-08T12:52:25.695Z,35.11
2018-06-08T12:54:56.258Z,34.89
2018-06-08T12:57:27.261Z,34.98
2018-06-08T12:59:57.954Z,35.72
2018-06-08T13:02:28.467Z,35.50
2018-06-08T13:04:59.082Z,35.60
2018-06-08T13:07:29.938Z,35.82
2018-06-08T13:10:00.297Z,36.15
2018-06-08T13:12:30.886Z,36.12
2018-06-08T13:15:01.497Z,35.00
2018-06-08T13:17:32.195Z,35.50
2018-06-08T13:20:02.661Z,36.33
2018-06-08T13:22:33.591Z,37.06
2018-06-08T13:25:04.178Z,36.09
2018-06-08T13:27:34.518Z,36.01
2018-06-08T13:30:04.888Z,36.49
2018-06-08T13:32:35.534Z,36.62
2018-06-08T13:35:06.159Z,36.42
2018-06-08T13:37:36.734Z,36.15
2018-06-08T13:40:07.279Z,36.46
2018-06-08T13:42:38.692Z,36.13
2018-06-08T13:45:09.074Z,36.60
2018-06-08T13:47:39.629Z,37.35
2018-06-08T13:50:10.221Z,37.65
2018-06-08T13:52:40.759Z,37.60
2018-06-08T13:55:11.120Z,38.21
2018-06-08T13:57:41.746Z,38.58
2018-06-08T14:00:12.404Z,38.92
2018-06-08T14:02:42.871Z,38.34
2018-06-08T14:05:13.165Z,38.50
2018-06-08T14:07:44.131Z,38.50
2018-06-08T14:10:14.825Z,39.48
2018-06-08T14:12:45.392Z,39.78
2018-06-08T14:15:16.032Z,40.18
2018-06-08T14:17:46.479Z,40.38
2018-06-08T14:20:16.842Z,40.03
2018-06-08T14:22:47.538Z,40.75
2018-06-08T14:25:17.946Z,40.77
2018-06-08T14:27:48.307Z,40.73
2018-06-08T14:30:18.826Z,40.43
2018-06-08T14:32:49.275Z,39.31
2018-06-08T14:35:19.652Z,40.63
2018-06-08T14:37:50.279Z,40.66
2018-06-08T14:40:20.824Z,41.52
2018-06-08T14:42:51.364Z,42.19
2018-06-08T14:45:21.867Z,41.62
2018-06-08T14:47:52.394Z,41.19
2018-06-08T14:50:22.882Z,41.43
2018-06-08T14:52:53.242Z,40.77
2018-06-08T14:55:23.760Z,41.32
2018-06-08T14:57:54.194Z,41.46
2018-06-08T15:00:24.792Z,41.82
2018-06-08T15:02:55.323Z,42.32
2018-06-08T15:05:25.645Z,41.77
2018-06-08T15:07:57.008Z,42.11
2018-06-08T15:10:27.500Z,41.78
2018-06-08T15:12:58.306Z,42.24
2018-06-08T15:15:28.679Z,41.88
2018-06-08T15:17:59.234Z,41.91
2018-06-08T15:20:29.738Z,42.65
2018-06-08T15:23:00.363Z,42.71
2018-06-08T15:25:30.790Z,42.34
2018-06-08T15:28:01.268Z,42.30
2018-06-08T15:30:31.748Z,42.24
2018-06-08T15:33:02.097Z,42.20
2018-06-08T15:35:32.690Z,42.62
2018-06-08T15:38:02.978Z,42.28
2018-06-08T15:40:33.471Z,43.31
2018-06-08T15:43:04.193Z,42.68
2018-06-08T15:45:34.533Z,42.57
2018-06-08T15:48:05.404Z,42.04
2018-06-08T15:50:36.204Z,42.04
2018-06-08T15:53:07.205Z,42.99
2018-06-08T15:55:37.628Z,42.83
2018-06-08T15:58:08.111Z,43.20
2018-06-08T16:00:38.590Z,43.39
2018-06-08T16:03:09.080Z,43.64
2018-06-08T16:05:39.433Z,44.00
2018-06-08T16:08:10.049Z,43.88
2018-06-08T16:10:40.617Z,43.90
2018-06-08T16:13:11.306Z,44.18
2018-06-08T16:15:41.868Z,44.17
2018-06-08T16:18:12.264Z,44.17
2018-06-08T16:20:42.910Z,44.44
2018-06-08T16:23:13.541Z,44.07
2018-06-08T16:25:44.451Z,43.63
2018-06-08T16:28:14.750Z,44.06
2018-06-08T16:30:45.225Z,43.26
2018-06-08T16:33:15.603Z,44.11
2018-06-08T16:35:46.203Z,44.13
2018-06-08T16:38:16.857Z,44.08
2018-06-08T16:40:47.436Z,44.68
2018-06-08T16:43:18.019Z,44.79
2018-06-08T16:45:48.773Z,44.55
2018-06-08T16:48:19.348Z,44.35
2018-06-08T16:50:50.098Z,44.46
2018-06-08T16:53:20.967Z,44.30
2018-06-08T16:55:51.585Z,44.42
2018-06-08T16:58:22.115Z,44.43
2018-06-08T17:00:52.727Z,44.12
2018-06-08T17:03:23.177Z,43.85
2018-06-08T17:05:53.648Z,43.77
2018-06-08T17:08:24.170Z,43.69
2018-06-08T17:10:54.627Z,44.17
2018-06-08T17:13:25.079Z,44.06
2018-06-08T17:15:55.495Z,43.70
2018-06-08T17:18:25.835Z,43.57
2018-06-08T17:20:56.327Z,43.53
2018-06-08T17:23:26.625Z,43.10
2018-06-08T17:25:57.007Z,43.82
2018-06-08T17:28:27.682Z,43.49
2018-06-08T17:30:58.260Z,42.93
2018-06-08T17:33:28.792Z,42.75
2018-06-08T17:35:59.319Z,43.20
2018-06-08T17:38:29.660Z,43.21
2018-06-08T17:41:00.345Z,43.26
2018-06-08T17:43:30.846Z,43.16
2018-06-08T17:46:01.331Z,43.58
2018-06-08T17:48:31.864Z,43.53
2018-06-08T17:51:02.246Z,43.62
2018-06-08T17:53:32.592Z,44.11
2018-06-08T17:56:03.424Z,44.45
2018-06-08T17:58:33.795Z,44.39
2018-06-08T18:01:04.321Z,44.88
2018-06-08T18:03:34.857Z,45.22
2018-06-08T18:06:05.356Z,45.42
2018-06-08T18:08:35.883Z,45.50
2018-06-08T18:11:06.222Z,46.02
2018-06-08T18:13:36.836Z,45.87
2018-06-08T18:16:07.431Z,46.23
2018-06-08T18:18:38.004Z,47.28
2018-06-08T18:21:08.406Z,46.94
2018-06-08T18:23:38.698Z,47.62
2018-06-08T18:26:09.279Z,47.78
2018-06-08T18:28:39.872Z,48.63
2018-06-08T18:31:10.428Z,48.72
2018-06-08T18:33:40.930Z,49.32
2018-06-08T18:36:11.296Z,49.57
2018-06-08T18:38:42.003Z,49.46
2018-06-08T18:41:12.693Z,49.14
2018-06-08T18:43:43.066Z,49.08
2018-06-08T18:46:13.406Z,48.54
2018-06-08T18:48:43.843Z,48.94
2018-06-08T18:51:14.190Z,48.89
2018-06-08T18:53:44.615Z,49.33
2018-06-08T18:56:14.960Z,49.60
2018-06-08T18:58:45.499Z,49.83
2018-06-08T19:01:16.277Z,49.46
2018-06-08T19:03:46.786Z,50.24
2018-06-08T19:06:17.057Z,50.07
2018-06-08T19:08:47.444Z,50.10
2018-06-08T19:11:17.868Z,49.86
2018-06-08T19:13:48.270Z,49.91
2018-06-08T19:16:19.010Z,49.96
2018-06-08T19:18:49.299Z,50.18
2018-06-08T19:21:20.076Z,50.05
2018-06-08T19:23:50.568Z,49.79
2018-06-08T19:26:21.137Z,49.66
2018-06-08T19:28:51.623Z,49.41
2018-06-08T19:31:22.027Z,49.63
2018-06-08T19:33:52.511Z,49.61
2018-06-08T19:36:23.289Z,49.07
2018-06-08T19:38:53.674Z,49.16
2018-06-08T19:41:24.046Z,48.74
2018-06-08T19:43:54.616Z,49.33
2018-06-08T19:46:25.050Z,49.58
2018-06-08T19:48:55.344Z,49.59
2018-06-08T19:51:26.859Z,49.79
2018-06-08T19:53:57.386Z,51.49
2018-06-08T19:56:27.939Z,51.31
2018-06-08T19:58:58.512Z,51.33
2018-06-08T20:01:28.996Z,51.79
2018-06-08T20:03:59.533Z,52.08
2018-06-08T20:06:29.972Z,52.14
2018-06-08T20:09:00.252Z,51.74
2018-06-08T20:11:30.833Z,52.59
2018-06-08T20:14:01.417Z,52.96
2018-06-08T20:16:31.849Z,52.26
2018-06-08T20:19:02.460Z,52.49
2018-06-08T20:21:32.838Z,52.41
2018-06-08T20:24:05.219Z,52.84
2018-06-08T20:26:35.696Z,53.11
2018-06-08T20:29:06.267Z,53.49
2018-06-08T20:31:37.021Z,53.49
2018-06-08T20:34:07.527Z,53.43
2018-06-08T20:36:37.984Z,53.89
2018-06-08T20:39:09.065Z,53.78
2018-06-08T20:41:39.844Z,54.04
2018-06-08T20:44:10.237Z,54.04
2018-06-08T20:46:40.763Z,54.20
2018-06-08T20:49:11.296Z,54.19
2018-06-08T20:51:41.905Z,54.51
2018-06-08T20:54:12.188Z,54.98
2018-06-08T20:56:42.596Z,55.74
2018-06-08T20:59:13.112Z,55.80
2018-06-08T21:01:43.737Z,55.34
2018-06-08T21:04:14.580Z,55.71
2018-06-08T21:06:45.128Z,55.85
2018-06-08T21:09:15.517Z,56.84
2018-06-08T21:11:45.796Z,56.15
2018-06-08T21:14:16.192Z,56.67
2018-06-08T21:16:46.600Z,56.81
2018-06-08T21:19:17.164Z,56.54
2018-06-08T21:21:47.728Z,56.81
2018-06-08T21:24:18.077Z,56.09
2018-06-08T21:26:48.741Z,56.53
2018-06-08T21:29:19.110Z,56.75
2018-06-08T21:31:49.709Z,56.65
2018-06-08T21:34:21.187Z,57.18
2018-06-08T21:36:51.659Z,57.66
2018-06-08T21:39:22.114Z,58.29
2018-06-08T21:41:52.672Z,57.99
2018-06-08T21:44:23.232Z,58.06
2018-06-08T21:46:53.602Z,58.23
2018-06-08T21:49:24.254Z,58.39
2018-06-08T21:51:54.654Z,58.14
2018-06-08T21:54:25.321Z,58.40
2018-06-08T21:56:55.686Z,58.63
2018-06-08T21:59:27.260Z,58.36
2018-06-08T22:01:57.853Z,58.82
2018-06-08T22:04:28.440Z,58.76
2018-06-08T22:06:58.948Z,59.19
2018-06-08T22:09:29.361Z,58.62
2018-06-08T22:11:59.769Z,59.03
2018-06-08T22:14:30.078Z,58.97
2018-06-08T22:17:00.433Z,59.60
2018-06-08T22:19:30.994Z,59.17
2018-06-08T22:22:01.552Z,59.43
2018-06-08T22:24:32.025Z,59.89
2018-06-08T22:27:02.642Z,59.58
2018-06-08T22:29:32.944Z,60.00
2018-06-08T22:32:03.653Z,59.88
2018-06-08T22:34:34.276Z,59.91
2018-06-08T22:37:05.356Z,60.39
2018-06-08T22:39:35.778Z,59.70
2018-06-08T22:42:06.323Z,59.58
2018-06-08T22:44:36.804Z,59.99
2018-06-08T22:47:07.483Z,60.31
2018-06-08T22:49:38.065Z,60.50
2018-06-08T22:52:08.516Z,60.36
2018-06-08T22:54:38.834Z,60.90
2018-06-08T22:57:09.403Z,60.46
2018-06-08T22:59:39.743Z,60.42
2018-06-08T23:02:10.336Z,60.85
2018-06-08T23:04:41.060Z,60.61
2018-06-08T23:07:11.550Z,60.77
2018-06-08T23:09:41.892Z,60.12
2018-06-08T23:12:12.610Z,60.34
2018-06-08T23:14:43.054Z,60.72
2018-06-08T23:17:13.440Z,61.15
2018-06-08T23:19:43.903Z,61.41
2018-06-08T23:22:14.246Z,61.04
2018-06-08T23:24:45.020Z,60.81
2018-06-08T23:27:15.362Z,60.81
2018-06-08T23:29:45.971Z,60.92
2018-06-08T23:32:16.363Z,61.64
2018-06-08T23:34:46.792Z,61.96
2018-06-08T23:37:17.378Z,61.90
2018-06-08T23:39:47.675Z,62.38
2018-06-08T23:42:18.192Z,62.53
2018-06-08T23:44:49.130Z,61.91
2018-06-08T23:47:19.443Z,62.16
2018-06-08T23:49:49.998Z,63.14
2018-06-08T23:52:20.587Z,62.47
2018-06-08T23:54:50.945Z,62.60
2018-06-08T23:57:21.368Z,63.20
2018-06-08T23:59:51.899Z,62.63
